< < Back
Terminal Aerodrome Forecast


Current Version              Previous Versions:   1  2  3  4  5  6  7  8  9  

Terminal Aerodrome Forecast

836
FTUS42 KGSP 261401 AAA
TAFCLT
TAF AMD
KCLT 261401Z 2614/2712 04007KT 1SM BR OVC002
      TEMPO 2614/2616 4SM BR BKN009
     FM261600 04003KT P6SM BKN011
     FM261700 03007KT P6SM BKN025
     FM261900 03007KT P6SM BKN040=



Latest METAR

179
SAUS70 KWBC 262100 RRD
MTRCLT
METAR KCLT 262052Z 01010G15KT 10SM SCT017 OVC075 13/08 A2970 RMK AO2
SLP054 T01330078 50000


USA.gov is the U.S. government's official web portal to all federal, state and local government web resources and services.